sensor_id;sensor_type;location;lat;lon;timestamp;P1;durP1;ratioP1;P2;durP2;ratioP2
37507;SDS011;23360;46.936;15.514;2024-02-23T00:00:50;1.00;;;0.20;;
37507;SDS011;23360;46.936;15.514;2024-02-23T00:03:35;2.85;;;0.60;;
37507;SDS011;23360;46.936;15.514;2024-02-23T00:06:21;1.20;;;0.32;;
37507;SDS011;23360;46.936;15.514;2024-02-23T00:09:11;0.50;;;0.28;;
37507;SDS011;23360;46.936;15.514;2024-02-23T00:11:57;2.17;;;0.45;;
37507;SDS011;23360;46.936;15.514;2024-02-23T00:14:42;2.22;;;0.60;;
37507;SDS011;23360;46.936;15.514;2024-02-23T00:17:27;1.45;;;0.40;;
37507;SDS011;23360;46.936;15.514;2024-02-23T00:20:12;4.50;;;0.63;;
37507;SDS011;23360;46.936;15.514;2024-02-23T00:23:01;0.88;;;0.40;;
37507;SDS011;23360;46.936;15.514;2024-02-23T00:25:46;1.10;;;0.50;;
37507;SDS011;23360;46.936;15.514;2024-02-23T00:28:31;1.35;;;0.35;;
37507;SDS011;23360;46.936;15.514;2024-02-23T00:31:16;3.08;;;0.47;;
37507;SDS011;23360;46.936;15.514;2024-02-23T00:34:00;1.75;;;0.43;;
37507;SDS011;23360;46.936;15.514;2024-02-23T00:36:46;0.93;;;0.20;;
37507;SDS011;23360;46.936;15.514;2024-02-23T00:39:31;0.88;;;0.20;;
37507;SDS011;23360;46.936;15.514;2024-02-23T00:42:16;1.33;;;0.32;;
37507;SDS011;23360;46.936;15.514;2024-02-23T00:45:02;1.25;;;0.38;;
37507;SDS011;23360;46.936;15.514;2024-02-23T00:47:47;2.10;;;0.40;;
37507;SDS011;23360;46.936;15.514;2024-02-23T00:50:33;1.20;;;0.40;;
37507;SDS011;23360;46.936;15.514;2024-02-23T00:53:18;1.67;;;0.52;;
37507;SDS011;23360;46.936;15.514;2024-02-23T00:56:03;2.08;;;0.30;;
37507;SDS011;23360;46.936;15.514;2024-02-23T00:58:48;1.77;;;0.60;;
37507;SDS011;23360;46.936;15.514;2024-02-23T01:01:33;2.72;;;0.60;;
37507;SDS011;23360;46.936;15.514;2024-02-23T01:04:19;1.60;;;0.52;;
37507;SDS011;23360;46.936;15.514;2024-02-23T01:07:03;1.15;;;0.38;;
37507;SDS011;23360;46.936;15.514;2024-02-23T01:09:48;2.13;;;0.52;;
37507;SDS011;23360;46.936;15.514;2024-02-23T01:12:33;2.90;;;0.73;;
37507;SDS011;23360;46.936;15.514;2024-02-23T01:15:18;0.85;;;0.40;;
37507;SDS011;23360;46.936;15.514;2024-02-23T01:18:04;1.63;;;0.32;;
37507;SDS011;23360;46.936;15.514;2024-02-23T01:20:51;1.73;;;0.40;;
37507;SDS011;23360;46.936;15.514;2024-02-23T01:23:36;2.10;;;0.50;;
37507;SDS011;23360;46.936;15.514;2024-02-23T01:26:21;5.00;;;0.80;;
37507;SDS011;23360;46.936;15.514;2024-02-23T01:29:06;1.17;;;0.20;;
37507;SDS011;23360;46.936;15.514;2024-02-23T01:31:51;0.98;;;0.30;;
37507;SDS011;23360;46.936;15.514;2024-02-23T01:34:39;0.82;;;0.35;;
37507;SDS011;23360;46.936;15.514;2024-02-23T01:37:24;0.93;;;0.32;;
37507;SDS011;23360;46.936;15.514;2024-02-23T01:40:09;1.92;;;0.52;;
37507;SDS011;23360;46.936;15.514;2024-02-23T01:43:04;1.85;;;0.40;;
37507;SDS011;23360;46.936;15.514;2024-02-23T01:45:49;1.08;;;0.43;;
37507;SDS011;23360;46.936;15.514;2024-02-23T01:48:34;1.48;;;0.40;;
37507;SDS011;23360;46.936;15.514;2024-02-23T01:51:20;1.60;;;0.32;;
37507;SDS011;23360;46.936;15.514;2024-02-23T01:54:06;2.67;;;0.43;;
37507;SDS011;23360;46.936;15.514;2024-02-23T01:56:51;1.13;;;0.30;;
37507;SDS011;23360;46.936;15.514;2024-02-23T01:59:37;1.05;;;0.25;;
37507;SDS011;23360;46.936;15.514;2024-02-23T02:02:22;1.15;;;0.30;;
37507;SDS011;23360;46.936;15.514;2024-02-23T02:05:08;1.40;;;0.40;;
37507;SDS011;23360;46.936;15.514;2024-02-23T02:07:54;1.55;;;0.20;;
37507;SDS011;23360;46.936;15.514;2024-02-23T02:10:44;1.30;;;0.40;;
37507;SDS011;23360;46.936;15.514;2024-02-23T02:13:30;1.17;;;0.30;;
37507;SDS011;23360;46.936;15.514;2024-02-23T02:16:15;1.10;;;0.15;;
37507;SDS011;23360;46.936;15.514;2024-02-23T02:19:01;1.00;;;0.20;;
37507;SDS011;23360;46.936;15.514;2024-02-23T02:21:46;1.15;;;0.20;;
37507;SDS011;23360;46.936;15.514;2024-02-23T02:24:31;1.27;;;0.35;;
37507;SDS011;23360;46.936;15.514;2024-02-23T02:27:16;0.95;;;0.20;;
37507;SDS011;23360;46.936;15.514;2024-02-23T02:30:01;1.40;;;0.45;;
37507;SDS011;23360;46.936;15.514;2024-02-23T02:32:48;1.40;;;0.30;;
37507;SDS011;23360;46.936;15.514;2024-02-23T02:35:33;0.38;;;0.17;;
37507;SDS011;23360;46.936;15.514;2024-02-23T02:38:19;1.30;;;0.30;;
37507;SDS011;23360;46.936;15.514;2024-02-23T02:41:04;1.10;;;0.20;;
37507;SDS011;23360;46.936;15.514;2024-02-23T02:43:50;0.50;;;0.20;;
37507;SDS011;23360;46.936;15.514;2024-02-23T02:46:35;0.22;;;0.10;;
37507;SDS011;23360;46.936;15.514;2024-02-23T02:49:23;2.05;;;0.30;;
37507;SDS011;23360;46.936;15.514;2024-02-23T02:52:09;1.15;;;0.30;;
37507;SDS011;23360;46.936;15.514;2024-02-23T02:54:54;1.85;;;0.43;;
37507;SDS011;23360;46.936;15.514;2024-02-23T02:57:39;2.92;;;0.63;;
37507;SDS011;23360;46.936;15.514;2024-02-23T03:00:24;1.20;;;0.30;;
37507;SDS011;23360;46.936;15.514;2024-02-23T03:03:10;1.27;;;0.30;;
37507;SDS011;23360;46.936;15.514;2024-02-23T03:05:56;3.50;;;0.40;;
37507;SDS011;23360;46.936;15.514;2024-02-23T03:08:42;1.23;;;0.30;;
37507;SDS011;23360;46.936;15.514;2024-02-23T03:11:27;1.55;;;0.22;;
37507;SDS011;23360;46.936;15.514;2024-02-23T03:14:13;0.90;;;0.38;;
37507;SDS011;23360;46.936;15.514;2024-02-23T03:16:58;0.82;;;0.25;;
37507;SDS011;23360;46.936;15.514;2024-02-23T03:19:43;3.33;;;0.20;;
37507;SDS011;23360;46.936;15.514;2024-02-23T03:22:28;0.65;;;0.10;;
37507;SDS011;23360;46.936;15.514;2024-02-23T03:25:13;0.30;;;0.10;;
37507;SDS011;23360;46.936;15.514;2024-02-23T03:27:58;0.32;;;0.25;;
37507;SDS011;23360;46.936;15.514;2024-02-23T03:30:43;1.05;;;0.28;;
37507;SDS011;23360;46.936;15.514;2024-02-23T03:33:28;0.52;;;0.20;;
37507;SDS011;23360;46.936;15.514;2024-02-23T03:36:13;0.63;;;0.20;;
37507;SDS011;23360;46.936;15.514;2024-02-23T03:38:58;0.70;;;0.10;;
37507;SDS011;23360;46.936;15.514;2024-02-23T03:41:43;0.77;;;0.13;;
37507;SDS011;23360;46.936;15.514;2024-02-23T03:44:29;1.27;;;0.40;;
37507;SDS011;23360;46.936;15.514;2024-02-23T03:47:14;0.30;;;0.13;;
37507;SDS011;23360;46.936;15.514;2024-02-23T03:49:59;1.33;;;0.30;;
37507;SDS011;23360;46.936;15.514;2024-02-23T03:52:44;0.10;;;0.10;;
37507;SDS011;23360;46.936;15.514;2024-02-23T03:55:29;0.40;;;0.10;;
37507;SDS011;23360;46.936;15.514;2024-02-23T03:58:14;0.80;;;0.20;;
37507;SDS011;23360;46.936;15.514;2024-02-23T04:01:00;0.25;;;0.10;;
37507;SDS011;23360;46.936;15.514;2024-02-23T04:03:45;1.10;;;0.20;;
37507;SDS011;23360;46.936;15.514;2024-02-23T04:06:30;0.80;;;0.20;;
37507;SDS011;23360;46.936;15.514;2024-02-23T04:09:16;0.65;;;0.30;;
37507;SDS011;23360;46.936;15.514;2024-02-23T04:12:00;0.20;;;0.05;;
37507;SDS011;23360;46.936;15.514;2024-02-23T04:14:46;0.52;;;0.10;;
37507;SDS011;23360;46.936;15.514;2024-02-23T04:17:31;1.15;;;0.38;;
37507;SDS011;23360;46.936;15.514;2024-02-23T04:20:17;0.70;;;0.13;;
37507;SDS011;23360;46.936;15.514;2024-02-23T04:23:02;1.92;;;0.22;;
37507;SDS011;23360;46.936;15.514;2024-02-23T04:25:47;1.30;;;0.20;;
37507;SDS011;23360;46.936;15.514;2024-02-23T04:28:32;1.45;;;0.40;;
37507;SDS011;23360;46.936;15.514;2024-02-23T04:31:18;4.90;;;0.40;;
37507;SDS011;23360;46.936;15.514;2024-02-23T04:34:03;0.90;;;0.10;;
37507;SDS011;23360;46.936;15.514;2024-02-23T04:36:49;1.52;;;0.30;;
37507;SDS011;23360;46.936;15.514;2024-02-23T04:39:34;2.97;;;0.70;;
37507;SDS011;23360;46.936;15.514;2024-02-23T04:42:19;1.15;;;0.20;;
37507;SDS011;23360;46.936;15.514;2024-02-23T04:45:04;1.45;;;0.50;;
37507;SDS011;23360;46.936;15.514;2024-02-23T04:47:49;1.70;;;0.30;;
37507;SDS011;23360;46.936;15.514;2024-02-23T04:50:35;0.85;;;0.25;;
37507;SDS011;23360;46.936;15.514;2024-02-23T04:53:20;1.60;;;0.50;;
37507;SDS011;23360;46.936;15.514;2024-02-23T04:56:05;0.95;;;0.20;;
37507;SDS011;23360;46.936;15.514;2024-02-23T04:58:51;2.38;;;0.40;;
37507;SDS011;23360;46.936;15.514;2024-02-23T05:01:36;1.70;;;0.40;;
37507;SDS011;23360;46.936;15.514;2024-02-23T05:04:22;2.38;;;0.47;;
37507;SDS011;23360;46.936;15.514;2024-02-23T05:07:07;4.13;;;0.63;;
37507;SDS011;23360;46.936;15.514;2024-02-23T05:09:52;3.40;;;0.70;;
37507;SDS011;23360;46.936;15.514;2024-02-23T05:12:37;3.45;;;0.60;;
37507;SDS011;23360;46.936;15.514;2024-02-23T05:15:22;1.83;;;0.45;;
37507;SDS011;23360;46.936;15.514;2024-02-23T05:18:07;0.88;;;0.30;;
37507;SDS011;23360;46.936;15.514;2024-02-23T05:20:52;3.50;;;0.80;;
37507;SDS011;23360;46.936;15.514;2024-02-23T05:23:38;0.93;;;0.20;;
37507;SDS011;23360;46.936;15.514;2024-02-23T05:26:23;1.45;;;0.30;;
37507;SDS011;23360;46.936;15.514;2024-02-23T05:29:09;1.50;;;0.40;;
37507;SDS011;23360;46.936;15.514;2024-02-23T05:31:55;1.55;;;0.43;;
37507;SDS011;23360;46.936;15.514;2024-02-23T05:34:40;2.20;;;0.65;;
37507;SDS011;23360;46.936;15.514;2024-02-23T05:37:25;0.75;;;0.30;;
37507;SDS011;23360;46.936;15.514;2024-02-23T05:40:12;0.60;;;0.20;;
37507;SDS011;23360;46.936;15.514;2024-02-23T05:42:57;1.10;;;0.22;;
37507;SDS011;23360;46.936;15.514;2024-02-23T05:45:42;1.00;;;0.30;;
37507;SDS011;23360;46.936;15.514;2024-02-23T05:48:29;1.42;;;0.50;;
37507;SDS011;23360;46.936;15.514;2024-02-23T05:51:14;1.23;;;0.22;;
37507;SDS011;23360;46.936;15.514;2024-02-23T05:53:59;0.95;;;0.35;;
37507;SDS011;23360;46.936;15.514;2024-02-23T05:56:44;1.10;;;0.30;;
37507;SDS011;23360;46.936;15.514;2024-02-23T05:59:30;0.95;;;0.30;;
37507;SDS011;23360;46.936;15.514;2024-02-23T06:02:15;1.02;;;0.22;;
37507;SDS011;23360;46.936;15.514;2024-02-23T06:05:00;0.10;;;0.10;;
37507;SDS011;23360;46.936;15.514;2024-02-23T06:07:45;0.90;;;0.20;;
37507;SDS011;23360;46.936;15.514;2024-02-23T06:10:31;1.42;;;0.52;;
37507;SDS011;23360;46.936;15.514;2024-02-23T06:13:16;1.73;;;0.38;;
37507;SDS011;23360;46.936;15.514;2024-02-23T06:16:02;1.08;;;0.30;;
37507;SDS011;23360;46.936;15.514;2024-02-23T06:18:47;0.88;;;0.25;;
37507;SDS011;23360;46.936;15.514;2024-02-23T06:21:35;1.65;;;0.50;;
37507;SDS011;23360;46.936;15.514;2024-02-23T06:24:21;3.97;;;0.47;;
37507;SDS011;23360;46.936;15.514;2024-02-23T06:27:06;1.17;;;0.45;;
37507;SDS011;23360;46.936;15.514;2024-02-23T06:29:53;1.73;;;0.40;;
37507;SDS011;23360;46.936;15.514;2024-02-23T06:32:38;3.03;;;0.57;;
37507;SDS011;23360;46.936;15.514;2024-02-23T06:35:23;1.45;;;0.40;;
37507;SDS011;23360;46.936;15.514;2024-02-23T06:38:08;2.35;;;0.55;;
37507;SDS011;23360;46.936;15.514;2024-02-23T06:40:54;1.83;;;0.30;;
37507;SDS011;23360;46.936;15.514;2024-02-23T06:43:41;4.45;;;0.40;;
37507;SDS011;23360;46.936;15.514;2024-02-23T06:46:26;1.95;;;0.40;;
37507;SDS011;23360;46.936;15.514;2024-02-23T06:49:11;1.27;;;0.43;;
37507;SDS011;23360;46.936;15.514;2024-02-23T06:51:57;1.30;;;0.45;;
37507;SDS011;23360;46.936;15.514;2024-02-23T06:54:42;7.18;;;0.55;;
37507;SDS011;23360;46.936;15.514;2024-02-23T06:57:27;2.40;;;0.60;;
37507;SDS011;23360;46.936;15.514;2024-02-23T07:00:13;1.77;;;0.30;;
37507;SDS011;23360;46.936;15.514;2024-02-23T07:02:58;5.40;;;0.77;;
37507;SDS011;23360;46.936;15.514;2024-02-23T07:05:44;0.70;;;0.30;;
37507;SDS011;23360;46.936;15.514;2024-02-23T07:08:30;0.73;;;0.20;;
37507;SDS011;23360;46.936;15.514;2024-02-23T07:11:15;1.67;;;0.63;;
37507;SDS011;23360;46.936;15.514;2024-02-23T07:14:01;1.02;;;0.40;;
37507;SDS011;23360;46.936;15.514;2024-02-23T07:16:46;2.72;;;0.55;;
37507;SDS011;23360;46.936;15.514;2024-02-23T07:19:31;1.25;;;0.32;;
37507;SDS011;23360;46.936;15.514;2024-02-23T07:22:17;1.48;;;0.28;;
37507;SDS011;23360;46.936;15.514;2024-02-23T07:25:05;3.15;;;0.70;;
37507;SDS011;23360;46.936;15.514;2024-02-23T07:27:51;1.45;;;0.40;;
37507;SDS011;23360;46.936;15.514;2024-02-23T07:30:36;1.23;;;0.50;;
37507;SDS011;23360;46.936;15.514;2024-02-23T07:33:24;3.80;;;0.70;;
37507;SDS011;23360;46.936;15.514;2024-02-23T07:36:15;6.20;;;0.80;;
37507;SDS011;23360;46.936;15.514;2024-02-23T07:39:01;1.45;;;0.40;;
37507;SDS011;23360;46.936;15.514;2024-02-23T07:41:46;3.25;;;0.70;;
37507;SDS011;23360;46.936;15.514;2024-02-23T07:44:31;2.85;;;0.60;;
37507;SDS011;23360;46.936;15.514;2024-02-23T07:47:16;6.40;;;0.28;;
37507;SDS011;23360;46.936;15.514;2024-02-23T07:50:02;2.08;;;0.68;;
37507;SDS011;23360;46.936;15.514;2024-02-23T07:52:47;3.67;;;0.70;;
37507;SDS011;23360;46.936;15.514;2024-02-23T07:55:33;4.88;;;0.50;;
37507;SDS011;23360;46.936;15.514;2024-02-23T07:58:18;3.35;;;0.73;;
37507;SDS011;23360;46.936;15.514;2024-02-23T08:01:04;0.60;;;0.20;;
37507;SDS011;23360;46.936;15.514;2024-02-23T08:03:49;2.25;;;0.30;;
37507;SDS011;23360;46.936;15.514;2024-02-23T08:06:34;4.15;;;1.45;;
37507;SDS011;23360;46.936;15.514;2024-02-23T08:09:19;1.48;;;0.45;;
37507;SDS011;23360;46.936;15.514;2024-02-23T08:12:07;3.47;;;0.65;;
37507;SDS011;23360;46.936;15.514;2024-02-23T08:14:52;1.08;;;0.40;;
37507;SDS011;23360;46.936;15.514;2024-02-23T08:17:38;0.47;;;0.10;;
37507;SDS011;23360;46.936;15.514;2024-02-23T08:20:23;2.10;;;0.50;;
37507;SDS011;23360;46.936;15.514;2024-02-23T08:23:08;2.08;;;0.45;;
37507;SDS011;23360;46.936;15.514;2024-02-23T08:25:54;3.38;;;0.40;;
37507;SDS011;23360;46.936;15.514;2024-02-23T08:28:41;1.23;;;0.45;;
37507;SDS011;23360;46.936;15.514;2024-02-23T08:31:26;2.60;;;0.65;;
37507;SDS011;23360;46.936;15.514;2024-02-23T08:34:11;5.88;;;0.40;;
37507;SDS011;23360;46.936;15.514;2024-02-23T08:36:57;1.50;;;0.52;;
37507;SDS011;23360;46.936;15.514;2024-02-23T08:39:42;4.28;;;0.52;;
37507;SDS011;23360;46.936;15.514;2024-02-23T08:42:27;1.80;;;0.57;;
37507;SDS011;23360;46.936;15.514;2024-02-23T08:45:12;5.50;;;0.50;;
37507;SDS011;23360;46.936;15.514;2024-02-23T08:47:58;1.05;;;0.30;;
37507;SDS011;23360;46.936;15.514;2024-02-23T08:50:44;1.65;;;0.70;;
37507;SDS011;23360;46.936;15.514;2024-02-23T08:53:30;2.60;;;0.60;;
37507;SDS011;23360;46.936;15.514;2024-02-23T08:56:15;1.13;;;0.30;;
37507;SDS011;23360;46.936;15.514;2024-02-23T08:59:01;5.80;;;0.47;;
37507;SDS011;23360;46.936;15.514;2024-02-23T09:01:46;1.90;;;0.35;;
37507;SDS011;23360;46.936;15.514;2024-02-23T09:04:32;1.80;;;0.50;;
37507;SDS011;23360;46.936;15.514;2024-02-23T09:07:18;4.03;;;1.00;;
37507;SDS011;23360;46.936;15.514;2024-02-23T09:10:07;2.03;;;0.60;;
37507;SDS011;23360;46.936;15.514;2024-02-23T09:12:52;3.28;;;0.90;;
37507;SDS011;23360;46.936;15.514;2024-02-23T09:15:39;2.88;;;0.85;;
37507;SDS011;23360;46.936;15.514;2024-02-23T09:18:24;4.70;;;0.95;;
37507;SDS011;23360;46.936;15.514;2024-02-23T09:21:09;5.85;;;0.90;;
37507;SDS011;23360;46.936;15.514;2024-02-23T09:23:54;3.83;;;1.08;;
37507;SDS011;23360;46.936;15.514;2024-02-23T09:26:40;2.80;;;0.90;;
37507;SDS011;23360;46.936;15.514;2024-02-23T09:29:25;2.22;;;0.82;;
37507;SDS011;23360;46.936;15.514;2024-02-23T09:32:10;5.35;;;1.00;;
37507;SDS011;23360;46.936;15.514;2024-02-23T09:34:56;3.95;;;0.95;;
37507;SDS011;23360;46.936;15.514;2024-02-23T09:37:41;3.25;;;0.85;;
37507;SDS011;23360;46.936;15.514;2024-02-23T09:40:27;3.85;;;1.27;;
37507;SDS011;23360;46.936;15.514;2024-02-23T09:43:12;4.13;;;0.98;;
37507;SDS011;23360;46.936;15.514;2024-02-23T09:45:57;5.72;;;1.33;;
37507;SDS011;23360;46.936;15.514;2024-02-23T09:48:43;4.78;;;0.82;;
37507;SDS011;23360;46.936;15.514;2024-02-23T09:51:29;3.78;;;1.45;;
37507;SDS011;23360;46.936;15.514;2024-02-23T09:54:14;15.60;;;1.50;;
37507;SDS011;23360;46.936;15.514;2024-02-23T09:57:03;3.65;;;1.33;;
37507;SDS011;23360;46.936;15.514;2024-02-23T09:59:49;2.50;;;0.80;;
37507;SDS011;23360;46.936;15.514;2024-02-23T10:02:36;5.18;;;1.00;;
37507;SDS011;23360;46.936;15.514;2024-02-23T10:05:23;8.23;;;1.20;;
37507;SDS011;23360;46.936;15.514;2024-02-23T10:08:08;4.13;;;0.98;;
37507;SDS011;23360;46.936;15.514;2024-02-23T10:10:54;9.20;;;1.40;;
37507;SDS011;23360;46.936;15.514;2024-02-23T10:13:40;5.20;;;1.60;;
37507;SDS011;23360;46.936;15.514;2024-02-23T10:16:26;4.43;;;1.42;;
37507;SDS011;23360;46.936;15.514;2024-02-23T10:19:10;3.97;;;1.27;;
37507;SDS011;23360;46.936;15.514;2024-02-23T10:21:56;6.15;;;1.20;;
37507;SDS011;23360;46.936;15.514;2024-02-23T10:24:42;4.18;;;1.00;;
37507;SDS011;23360;46.936;15.514;2024-02-23T10:27:27;4.85;;;0.90;;
37507;SDS011;23360;46.936;15.514;2024-02-23T10:30:13;3.03;;;1.00;;
37507;SDS011;23360;46.936;15.514;2024-02-23T10:33:00;3.10;;;0.68;;
37507;SDS011;23360;46.936;15.514;2024-02-23T10:35:45;2.90;;;0.88;;
37507;SDS011;23360;46.936;15.514;2024-02-23T10:38:32;5.57;;;1.00;;
37507;SDS011;23360;46.936;15.514;2024-02-23T10:41:17;3.22;;;0.73;;
37507;SDS011;23360;46.936;15.514;2024-02-23T10:44:03;4.55;;;1.20;;
37507;SDS011;23360;46.936;15.514;2024-02-23T10:46:49;3.17;;;1.13;;
37507;SDS011;23360;46.936;15.514;2024-02-23T10:49:36;2.67;;;1.00;;
37507;SDS011;23360;46.936;15.514;2024-02-23T10:52:22;4.10;;;1.10;;
37507;SDS011;23360;46.936;15.514;2024-02-23T10:55:08;7.47;;;1.25;;
37507;SDS011;23360;46.936;15.514;2024-02-23T10:57:53;9.80;;;1.42;;
37507;SDS011;23360;46.936;15.514;2024-02-23T11:00:40;3.95;;;1.23;;
37507;SDS011;23360;46.936;15.514;2024-02-23T11:03:25;6.03;;;1.25;;
37507;SDS011;23360;46.936;15.514;2024-02-23T11:06:10;3.67;;;1.33;;
37507;SDS011;23360;46.936;15.514;2024-02-23T11:09:11;4.80;;;1.25;;
37507;SDS011;23360;46.936;15.514;2024-02-23T11:11:57;4.78;;;1.60;;
37507;SDS011;23360;46.936;15.514;2024-02-23T11:14:44;5.68;;;1.55;;
37507;SDS011;23360;46.936;15.514;2024-02-23T11:17:30;3.28;;;1.10;;
37507;SDS011;23360;46.936;15.514;2024-02-23T11:20:16;3.22;;;1.02;;
37507;SDS011;23360;46.936;15.514;2024-02-23T11:23:14;4.18;;;1.40;;
37507;SDS011;23360;46.936;15.514;2024-02-23T11:28:48;3.40;;;1.27;;
37507;SDS011;23360;46.936;15.514;2024-02-23T11:31:34;3.33;;;1.30;;
37507;SDS011;23360;46.936;15.514;2024-02-23T11:34:22;5.63;;;1.90;;
37507;SDS011;23360;46.936;15.514;2024-02-23T11:37:11;5.90;;;1.45;;
37507;SDS011;23360;46.936;15.514;2024-02-23T11:39:58;10.77;;;1.85;;
37507;SDS011;23360;46.936;15.514;2024-02-23T11:42:44;2.83;;;1.23;;
37507;SDS011;23360;46.936;15.514;2024-02-23T11:45:29;5.80;;;1.85;;
37507;SDS011;23360;46.936;15.514;2024-02-23T11:48:16;7.95;;;4.00;;
37507;SDS011;23360;46.936;15.514;2024-02-23T11:51:01;9.15;;;4.38;;
37507;SDS011;23360;46.936;15.514;2024-02-23T11:53:47;6.68;;;2.03;;
37507;SDS011;23360;46.936;15.514;2024-02-23T11:56:32;10.07;;;3.92;;
37507;SDS011;23360;46.936;15.514;2024-02-23T11:59:19;9.77;;;5.45;;
37507;SDS011;23360;46.936;15.514;2024-02-23T12:02:06;6.53;;;1.90;;
37507;SDS011;23360;46.936;15.514;2024-02-23T12:04:52;8.00;;;2.33;;
37507;SDS011;23360;46.936;15.514;2024-02-23T12:07:37;8.95;;;2.53;;
37507;SDS011;23360;46.936;15.514;2024-02-23T12:10:22;5.72;;;2.28;;
37507;SDS011;23360;46.936;15.514;2024-02-23T12:13:08;3.33;;;1.38;;
37507;SDS011;23360;46.936;15.514;2024-02-23T12:15:53;7.88;;;2.17;;
37507;SDS011;23360;46.936;15.514;2024-02-23T12:18:38;6.07;;;2.58;;
37507;SDS011;23360;46.936;15.514;2024-02-23T12:21:23;5.85;;;2.33;;
37507;SDS011;23360;46.936;15.514;2024-02-23T12:24:10;4.97;;;1.60;;
37507;SDS011;23360;46.936;15.514;2024-02-23T12:26:55;5.20;;;1.88;;
37507;SDS011;23360;46.936;15.514;2024-02-23T12:29:40;5.55;;;2.20;;
37507;SDS011;23360;46.936;15.514;2024-02-23T12:32:25;8.63;;;2.70;;
37507;SDS011;23360;46.936;15.514;2024-02-23T12:35:11;6.80;;;2.40;;
37507;SDS011;23360;46.936;15.514;2024-02-23T12:37:57;10.80;;;1.83;;
37507;SDS011;23360;46.936;15.514;2024-02-23T12:40:43;10.57;;;4.20;;
37507;SDS011;23360;46.936;15.514;2024-02-23T12:43:28;5.45;;;2.35;;
37507;SDS011;23360;46.936;15.514;2024-02-23T12:46:13;9.35;;;4.65;;
37507;SDS011;23360;46.936;15.514;2024-02-23T12:48:59;8.25;;;2.33;;
37507;SDS011;23360;46.936;15.514;2024-02-23T12:51:44;10.07;;;2.30;;
37507;SDS011;23360;46.936;15.514;2024-02-23T12:54:29;10.45;;;2.33;;
37507;SDS011;23360;46.936;15.514;2024-02-23T12:57:15;7.13;;;2.78;;
37507;SDS011;23360;46.936;15.514;2024-02-23T13:00:00;11.32;;;2.83;;
37507;SDS011;23360;46.936;15.514;2024-02-23T13:02:45;7.10;;;2.55;;
37507;SDS011;23360;46.936;15.514;2024-02-23T13:05:30;7.45;;;2.33;;
37507;SDS011;23360;46.936;15.514;2024-02-23T13:08:15;7.72;;;3.15;;
37507;SDS011;23360;46.936;15.514;2024-02-23T13:11:01;10.27;;;2.70;;
37507;SDS011;23360;46.936;15.514;2024-02-23T13:13:46;7.38;;;3.17;;
37507;SDS011;23360;46.936;15.514;2024-02-23T13:16:32;6.28;;;2.80;;
37507;SDS011;23360;46.936;15.514;2024-02-23T13:19:17;5.20;;;2.63;;
37507;SDS011;23360;46.936;15.514;2024-02-23T13:22:02;14.55;;;3.58;;
37507;SDS011;23360;46.936;15.514;2024-02-23T13:24:47;7.82;;;4.80;;
37507;SDS011;23360;46.936;15.514;2024-02-23T13:27:32;13.05;;;4.65;;
37507;SDS011;23360;46.936;15.514;2024-02-23T13:30:17;10.27;;;4.07;;
37507;SDS011;23360;46.936;15.514;2024-02-23T13:33:02;9.68;;;3.38;;
37507;SDS011;23360;46.936;15.514;2024-02-23T13:35:49;13.35;;;4.72;;
37507;SDS011;23360;46.936;15.514;2024-02-23T13:38:35;9.57;;;3.60;;
37507;SDS011;23360;46.936;15.514;2024-02-23T13:41:23;9.90;;;4.78;;
37507;SDS011;23360;46.936;15.514;2024-02-23T13:44:08;6.80;;;3.45;;
37507;SDS011;23360;46.936;15.514;2024-02-23T13:46:53;9.38;;;5.47;;
37507;SDS011;23360;46.936;15.514;2024-02-23T13:49:39;10.27;;;4.15;;
37507;SDS011;23360;46.936;15.514;2024-02-23T13:52:24;9.48;;;3.00;;
37507;SDS011;23360;46.936;15.514;2024-02-23T13:55:09;9.43;;;2.75;;
37507;SDS011;23360;46.936;15.514;2024-02-23T13:57:55;8.75;;;3.42;;
37507;SDS011;23360;46.936;15.514;2024-02-23T14:00:40;9.57;;;2.80;;
37507;SDS011;23360;46.936;15.514;2024-02-23T14:03:25;11.50;;;2.95;;
37507;SDS011;23360;46.936;15.514;2024-02-23T14:06:10;9.63;;;3.97;;
37507;SDS011;23360;46.936;15.514;2024-02-23T14:08:56;8.07;;;3.30;;
37507;SDS011;23360;46.936;15.514;2024-02-23T14:11:40;13.07;;;4.18;;
37507;SDS011;23360;46.936;15.514;2024-02-23T14:14:26;12.65;;;4.55;;
37507;SDS011;23360;46.936;15.514;2024-02-23T14:17:11;13.50;;;3.53;;
37507;SDS011;23360;46.936;15.514;2024-02-23T14:19:56;9.13;;;3.75;;
37507;SDS011;23360;46.936;15.514;2024-02-23T14:22:42;9.50;;;3.72;;
37507;SDS011;23360;46.936;15.514;2024-02-23T14:25:27;9.18;;;3.47;;
37507;SDS011;23360;46.936;15.514;2024-02-23T14:28:12;7.15;;;2.75;;
37507;SDS011;23360;46.936;15.514;2024-02-23T14:30:58;9.73;;;3.97;;
37507;SDS011;23360;46.936;15.514;2024-02-23T14:33:43;12.35;;;3.63;;
37507;SDS011;23360;46.936;15.514;2024-02-23T14:36:32;8.68;;;3.75;;
37507;SDS011;23360;46.936;15.514;2024-02-23T14:39:19;10.00;;;4.00;;
37507;SDS011;23360;46.936;15.514;2024-02-23T14:42:06;12.60;;;3.95;;
37507;SDS011;23360;46.936;15.514;2024-02-23T14:44:53;10.38;;;4.05;;
37507;SDS011;23360;46.936;15.514;2024-02-23T14:47:39;11.55;;;4.47;;
37507;SDS011;23360;46.936;15.514;2024-02-23T14:50:31;11.95;;;4.75;;
37507;SDS011;23360;46.936;15.514;2024-02-23T14:53:16;13.82;;;5.15;;
37507;SDS011;23360;46.936;15.514;2024-02-23T14:56:02;11.43;;;4.50;;
37507;SDS011;23360;46.936;15.514;2024-02-23T14:58:48;13.05;;;4.00;;
37507;SDS011;23360;46.936;15.514;2024-02-23T15:01:33;13.07;;;5.15;;
37507;SDS011;23360;46.936;15.514;2024-02-23T15:04:18;11.55;;;4.97;;
37507;SDS011;23360;46.936;15.514;2024-02-23T15:07:03;9.85;;;4.07;;
37507;SDS011;23360;46.936;15.514;2024-02-23T15:09:48;10.88;;;4.25;;
37507;SDS011;23360;46.936;15.514;2024-02-23T15:12:34;16.88;;;5.18;;
37507;SDS011;23360;46.936;15.514;2024-02-23T15:15:20;22.42;;;4.57;;
37507;SDS011;23360;46.936;15.514;2024-02-23T15:18:05;8.95;;;4.78;;
37507;SDS011;23360;46.936;15.514;2024-02-23T15:20:51;12.07;;;4.95;;
37507;SDS011;23360;46.936;15.514;2024-02-23T15:23:37;11.60;;;4.63;;
37507;SDS011;23360;46.936;15.514;2024-02-23T15:26:22;9.48;;;4.22;;
37507;SDS011;23360;46.936;15.514;2024-02-23T15:29:07;11.75;;;4.68;;
37507;SDS011;23360;46.936;15.514;2024-02-23T15:31:52;10.77;;;4.65;;
37507;SDS011;23360;46.936;15.514;2024-02-23T15:34:38;12.73;;;4.93;;
37507;SDS011;23360;46.936;15.514;2024-02-23T15:37:23;13.90;;;5.40;;
37507;SDS011;23360;46.936;15.514;2024-02-23T15:40:08;10.48;;;5.35;;
37507;SDS011;23360;46.936;15.514;2024-02-23T15:42:54;15.13;;;6.18;;
37507;SDS011;23360;46.936;15.514;2024-02-23T15:45:39;13.48;;;5.40;;
37507;SDS011;23360;46.936;15.514;2024-02-23T15:48:25;15.45;;;5.38;;
37507;SDS011;23360;46.936;15.514;2024-02-23T15:51:10;16.02;;;5.68;;
37507;SDS011;23360;46.936;15.514;2024-02-23T15:54:16;13.40;;;5.47;;
37507;SDS011;23360;46.936;15.514;2024-02-23T15:57:01;12.60;;;5.22;;
37507;SDS011;23360;46.936;15.514;2024-02-23T15:59:46;10.98;;;5.25;;
37507;SDS011;23360;46.936;15.514;2024-02-23T16:02:46;12.00;;;4.70;;
37507;SDS011;23360;46.936;15.514;2024-02-23T16:05:31;10.88;;;5.18;;
37507;SDS011;23360;46.936;15.514;2024-02-23T16:08:16;17.00;;;6.13;;
37507;SDS011;23360;46.936;15.514;2024-02-23T16:11:02;12.50;;;4.75;;
37507;SDS011;23360;46.936;15.514;2024-02-23T16:13:47;17.13;;;5.18;;
37507;SDS011;23360;46.936;15.514;2024-02-23T16:16:32;13.95;;;5.00;;
37507;SDS011;23360;46.936;15.514;2024-02-23T16:19:17;12.10;;;4.38;;
37507;SDS011;23360;46.936;15.514;2024-02-23T16:22:03;10.07;;;4.60;;
37507;SDS011;23360;46.936;15.514;2024-02-23T16:24:49;14.90;;;5.57;;